Airfield :
LOGIN :

Register | Disclaimer

   EN    FR    IT 

 










Legend :    VFR   Marginal VFR   IFR   Intensive IFR   Very Intensive IFR
Visi :
Ceiling :
>= 8 km
>= 3000ft
5 to 8 km
1000 to 3000 ft
1500m to 5 km
500 to 1000 ft
800 to 1500m
200 to 500 ft
< 800m
< 200 ft
Symbols :   Thunderstorms  Fog  Heavy snow  Heavy precipitations  Wind > 20 kt
SIGMETs :     Misc.  Thunderstorms  Icing  Turbulence  Mountain Waves  Volcanic Ashes






- Airport Elevation : 1234 ft
- IATA code : LUX


ELLX - Luxembourg Findel

CURRENT METAR :
  • 272220Z 20011KT 170V230 3000 RA BKN003 05/05 Q0999 BECMG 6000 -RA BKN006

EXPIRED METARs :
  • 272150Z 19013KT 160V230 3000 RA SCT003 BKN005 05/05 Q1000 BECMG 6000 -RA
  • 272120Z 19014KT 160V220 3000 RA BKN003 05/05 Q1000 TEMPO 6000 -RA BKN006
  • 272050Z 19012KT 160V220 4000 RA BKN003 BKN005 05/05 Q1001 TEMPO 6000 -RA
  • 272020Z 18012KT 3000 -RA BKN003 05/05 Q1001 TEMPO 6000 RA BKN006
  • 271950Z 18012KT 150V210 4500 RA BR BKN003 05/05 Q1002 TEMPO 4000 RA

TAF AMD TAF ELLX
Valid from the 27 at 18:00 until the 29 at 00:00 UTC


271900Z 2718/2824 22012KT 8000 -RA BKN005
TEMPO 2718/2802 5000 RA
TEMPO 2803/2818 25018G32KT 3000 SHRASN SCT008TCU BKN010
TEMPO 2803/2815 25025G45KT 1500 TSSNGS BKN008CB
TEMPO 2820/2824 1500 -SNRA BKN003
ATIS : +352 4798 27300
Met : +352 4798 27010 / 27050



MET'MAP, your aeronautical weather chart ! - Copyright ORBIFLY December 2007 - Disclaimer

ORBIFLY MET'MAP TEAM :

Programming & Development : Alexandra Zaïnal
Concept & original design : Baudouin d'Aumeries
Assistance for programming : Marc-Olivier Méhu
Technical & hardware support : Manuel Goepfert

Contact : metmap@orbifly.com




SOURCES & CREDITS :

   NOAA